createdAt,value
2022-10-18T00:01:28.750Z,102628.09
2022-10-18T00:03:55.170Z,102636.78
2022-10-18T00:06:21.606Z,102633.72
2022-10-18T00:08:48.473Z,102630.19
2022-10-18T00:11:14.924Z,102634.53
2022-10-18T00:13:41.481Z,102633.06
2022-10-18T00:16:12.868Z,102632.88
2022-10-18T00:18:39.662Z,102632.09
2022-10-18T00:21:09.624Z,102634.34
2022-10-18T00:23:36.847Z,102636.28
2022-10-18T00:26:06.896Z,102636.63
2022-10-18T00:28:34.706Z,102635.66
2022-10-18T00:31:19.095Z,102640.94
2022-10-18T00:33:49.786Z,102639.47
2022-10-18T00:36:16.239Z,102637.22
2022-10-18T00:38:43.574Z,102643.00
2022-10-18T00:41:13.430Z,102636.88
2022-10-18T00:43:57.850Z,102646.22
2022-10-18T00:46:26.135Z,102643.00
2022-10-18T00:51:31.088Z,102645.59
2022-10-18T00:53:57.703Z,102643.97
2022-10-18T00:56:24.306Z,102640.44
2022-10-18T00:58:51.602Z,102637.72
2022-10-18T01:01:18.258Z,102638.81
2022-10-18T01:03:44.754Z,102643.31
2022-10-18T01:06:11.533Z,102643.31
2022-10-18T01:08:44.968Z,102657.28
2022-10-18T01:11:29.430Z,102658.72
2022-10-18T01:14:13.805Z,102664.19
2022-10-18T01:16:47.773Z,102660.31
2022-10-18T01:19:43.206Z,102660.19
2022-10-18T01:22:20.838Z,102657.78
2022-10-18T01:25:19.842Z,102650.72
2022-10-18T01:27:57.151Z,102653.00
2022-10-18T01:30:29.438Z,102658.75
2022-10-18T01:33:20.725Z,102669.84
2022-10-18T01:36:09.874Z,102672.72
2022-10-18T01:38:38.111Z,102659.41
2022-10-18T01:41:06.397Z,102659.91
2022-10-18T01:43:35.237Z,102661.34
2022-10-18T01:46:04.007Z,102664.75
2022-10-18T01:48:31.516Z,102653.03
2022-10-18T01:50:58.240Z,102651.91
2022-10-18T01:53:30.695Z,102655.09
2022-10-18T01:56:14.460Z,102656.84
2022-10-18T01:58:49.885Z,102657.78
2022-10-18T02:01:37.797Z,102655.56
2022-10-18T02:04:17.219Z,102658.16
2022-10-18T02:06:46.679Z,102666.66
2022-10-18T02:09:21.146Z,102657.00
2022-10-18T02:11:51.280Z,102663.59
2022-10-18T02:14:19.496Z,102666.78
2022-10-18T02:16:51.071Z,102664.19
2022-10-18T02:19:28.557Z,102653.13
2022-10-18T02:21:57.661Z,102651.19
2022-10-18T02:24:31.651Z,102656.53
2022-10-18T02:26:58.127Z,102655.88
2022-10-18T02:29:25.164Z,102655.53
2022-10-18T02:31:59.410Z,102644.81
2022-10-18T02:34:32.110Z,102657.97
2022-10-18T02:37:01.021Z,102663.09
2022-10-18T02:39:34.076Z,102656.19
2022-10-18T02:42:00.802Z,102663.72
2022-10-18T02:44:27.315Z,102658.59
2022-10-18T02:46:53.816Z,102663.09
2022-10-18T02:49:20.262Z,102665.19
2022-10-18T02:51:46.828Z,102660.34
2022-10-18T02:54:13.301Z,102667.47
2022-10-18T02:56:39.723Z,102663.63
2022-10-18T02:59:07.467Z,102663.00
2022-10-18T03:01:34.779Z,102669.72
2022-10-18T03:04:01.898Z,102664.25
2022-10-18T03:06:28.524Z,102671.00
2022-10-18T03:08:54.947Z,102679.03
2022-10-18T03:11:21.496Z,102661.84
2022-10-18T03:13:47.951Z,102662.66
2022-10-18T03:16:14.439Z,102655.25
2022-10-18T03:18:40.855Z,102657.66
2022-10-18T03:21:08.324Z,102668.59
2022-10-18T03:23:35.068Z,102661.84
2022-10-18T03:26:01.908Z,102669.72
2022-10-18T03:28:28.461Z,102677.00
2022-10-18T03:31:01.222Z,102681.31
2022-10-18T03:33:28.205Z,102675.84
2022-10-18T03:35:54.657Z,102678.44
2022-10-18T03:38:21.146Z,102671.53
2022-10-18T03:40:47.585Z,102669.94
2022-10-18T03:43:14.065Z,102665.31
2022-10-18T03:45:40.674Z,102673.00
2022-10-18T03:48:07.205Z,102676.88
2022-10-18T03:50:33.639Z,102666.91
2022-10-18T03:53:00.070Z,102673.66
2022-10-18T03:55:26.512Z,102669.66
2022-10-18T03:57:53.003Z,102670.78
2022-10-18T04:00:19.544Z,102661.66
2022-10-18T04:02:46.382Z,102669.00
2022-10-18T04:05:14.062Z,102668.72
2022-10-18T04:07:40.815Z,102668.72
2022-10-18T04:10:07.788Z,102670.94
2022-10-18T04:12:34.513Z,102658.75
2022-10-18T04:15:01.022Z,102657.47
2022-10-18T04:17:27.482Z,102661.34
2022-10-18T04:19:53.923Z,102657.94
2022-10-18T04:22:20.345Z,102662.94
2022-10-18T04:24:46.955Z,102662.59
2022-10-18T04:27:13.422Z,102659.09
2022-10-18T04:29:39.840Z,102660.69
2022-10-18T04:32:06.423Z,102661.66
2022-10-18T04:34:32.881Z,102663.56
2022-10-18T04:36:59.378Z,102666.13
2022-10-18T04:39:25.850Z,102673.38
2022-10-18T04:41:52.252Z,102667.25
2022-10-18T04:44:18.741Z,102664.69
2022-10-18T04:46:45.178Z,102657.63
2022-10-18T04:49:11.667Z,102666.94
2022-10-18T04:51:38.086Z,102663.41
2022-10-18T04:54:04.570Z,102668.06
2022-10-18T04:56:31.062Z,102673.50
2022-10-18T04:58:58.484Z,102676.09
2022-10-18T05:01:25.612Z,102673.66
2022-10-18T05:03:54.212Z,102677.38
2022-10-18T05:06:21.404Z,102683.75
2022-10-18T05:08:48.186Z,102679.09
2022-10-18T05:11:14.696Z,102681.84
2022-10-18T05:13:41.202Z,102678.00
2022-10-18T05:16:07.693Z,102685.06
2022-10-18T05:18:34.202Z,102674.78
2022-10-18T05:21:00.677Z,102685.19
2022-10-18T05:23:27.092Z,102685.38
2022-10-18T05:25:53.800Z,102686.31
2022-10-18T05:31:08.774Z,102688.22
2022-10-18T05:33:35.770Z,102693.81
2022-10-18T05:36:02.317Z,102700.06
2022-10-18T05:38:31.067Z,102699.91
2022-10-18T05:40:58.271Z,102701.84
2022-10-18T05:43:28.706Z,102697.94
2022-10-18T05:45:55.175Z,102694.38
2022-10-18T05:48:21.594Z,102697.56
2022-10-18T05:50:48.010Z,102697.09
2022-10-18T05:53:35.357Z,102706.69
2022-10-18T05:56:01.660Z,102703.97
2022-10-18T05:58:28.214Z,102711.66
2022-10-18T06:00:54.714Z,102719.63
2022-10-18T06:03:21.146Z,102720.75
2022-10-18T06:05:47.630Z,102721.88
2022-10-18T06:08:14.195Z,102716.91
2022-10-18T06:10:40.637Z,102732.34
2022-10-18T06:13:07.086Z,102727.84
2022-10-18T06:15:33.569Z,102729.63
2022-10-18T06:18:00.134Z,102742.28
2022-10-18T06:20:26.540Z,102744.03
2022-10-18T06:22:53.644Z,102739.34
2022-10-18T06:25:20.104Z,102739.34
2022-10-18T06:27:46.567Z,102745.91
2022-10-18T06:30:13.029Z,102758.09
2022-10-18T06:32:39.548Z,102764.16
2022-10-18T06:35:06.539Z,102753.03
2022-10-18T06:37:35.576Z,102756.38
2022-10-18T06:40:02.350Z,102758.63
2022-10-18T06:42:28.841Z,102767.75
2022-10-18T06:44:55.274Z,102775.56
2022-10-18T06:47:21.698Z,102776.31
2022-10-18T06:49:48.118Z,102777.25
2022-10-18T06:52:17.466Z,102771.19
2022-10-18T06:54:45.423Z,102781.59
2022-10-18T06:57:12.040Z,102790.69
2022-10-18T06:59:38.550Z,102797.84
2022-10-18T07:02:05.039Z,102800.75
2022-10-18T07:04:31.513Z,102805.97
2022-10-18T07:06:57.944Z,102803.75
2022-10-18T07:09:24.435Z,102803.09
2022-10-18T07:11:52.753Z,102806.53
2022-10-18T07:14:19.185Z,102808.00
2022-10-18T07:16:45.633Z,102817.59
2022-10-18T07:19:12.246Z,102827.06
2022-10-18T07:21:38.674Z,102827.25
2022-10-18T07:24:05.333Z,102828.34
2022-10-18T07:26:33.679Z,102837.50
2022-10-18T07:29:04.771Z,102839.31
2022-10-18T07:31:31.295Z,102835.16
2022-10-18T07:33:57.967Z,102830.50
2022-10-18T07:36:25.566Z,102830.38
2022-10-18T07:38:52.543Z,102836.50
2022-10-18T07:41:20.113Z,102832.56
2022-10-18T07:43:51.489Z,102846.63
2022-10-18T07:46:19.462Z,102843.13
2022-10-18T07:48:45.891Z,102845.06
2022-10-18T07:51:13.007Z,102857.59
2022-10-18T07:53:39.834Z,102848.19
2022-10-18T07:56:21.030Z,102855.94
2022-10-18T07:58:53.622Z,102855.16
2022-10-18T08:01:21.795Z,102859.81
2022-10-18T08:03:48.466Z,102866.75
2022-10-18T08:06:17.991Z,102866.09
2022-10-18T08:08:45.661Z,102865.16
2022-10-18T08:11:14.794Z,102869.00
2022-10-18T08:13:41.674Z,102867.25
2022-10-18T08:16:11.318Z,102872.06
2022-10-18T08:18:38.306Z,102873.66
2022-10-18T08:21:07.609Z,102884.75
2022-10-18T08:23:35.080Z,102888.78
2022-10-18T08:26:02.825Z,102875.94
2022-10-18T08:28:29.554Z,102876.91
2022-10-18T08:30:56.026Z,102881.72
2022-10-18T08:33:22.706Z,102884.59
2022-10-18T08:35:59.852Z,102891.22
2022-10-18T08:38:28.698Z,102888.03
2022-10-18T08:40:55.110Z,102894.28
2022-10-18T08:43:25.403Z,102899.41
2022-10-18T08:45:54.271Z,102892.22
2022-10-18T08:48:30.579Z,102879.16
2022-10-18T08:50:58.351Z,102869.22
2022-10-18T08:53:35.085Z,102885.75
2022-10-18T08:56:11.208Z,102887.84
2022-10-18T08:58:38.662Z,102879.34
2022-10-18T09:01:18.520Z,102875.63
2022-10-18T09:04:18.292Z,102877.41
2022-10-18T09:07:09.531Z,102872.72
2022-10-18T09:09:47.594Z,102876.75
2022-10-18T09:12:39.935Z,102881.41
2022-10-18T09:15:13.645Z,102876.41
2022-10-18T09:17:59.566Z,102875.44
2022-10-18T09:20:54.434Z,102893.13
2022-10-18T09:23:39.331Z,102889.13
2022-10-18T09:26:23.083Z,102894.91
2022-10-18T09:29:08.677Z,102892.66
2022-10-18T09:31:56.821Z,102894.56
2022-10-18T09:34:31.115Z,102893.91
2022-10-18T09:36:58.963Z,102902.91
2022-10-18T09:39:33.592Z,102910.94
2022-10-18T09:42:16.618Z,102903.69
2022-10-18T09:44:49.163Z,102907.69
2022-10-18T09:47:33.827Z,102900.94
2022-10-18T09:50:23.151Z,102915.88
2022-10-18T09:53:20.253Z,102918.78
2022-10-18T09:56:02.332Z,102914.91
2022-10-18T09:58:47.027Z,102915.38
2022-10-18T10:01:18.230Z,102917.28
2022-10-18T10:03:44.762Z,102926.13
2022-10-18T10:06:15.118Z,102915.66
2022-10-18T10:08:43.879Z,102920.63
2022-10-18T10:11:32.152Z,102929.78
2022-10-18T10:14:19.543Z,102926.09
2022-10-18T10:16:57.143Z,102925.75
2022-10-18T10:19:28.069Z,102916.28
2022-10-18T10:22:12.219Z,102927.03
2022-10-18T10:24:41.604Z,102930.06
2022-10-18T10:27:17.944Z,102933.94
2022-10-18T10:29:53.591Z,102938.41
2022-10-18T10:32:22.705Z,102939.69
2022-10-18T10:34:50.058Z,102926.00
2022-10-18T10:37:25.433Z,102930.03
2022-10-18T10:40:23.049Z,102932.72
2022-10-18T10:43:04.321Z,102946.53
2022-10-18T10:46:04.106Z,102940.25
2022-10-18T10:48:33.781Z,102943.44
2022-10-18T10:51:02.051Z,102941.34
2022-10-18T10:53:30.013Z,102940.66
2022-10-18T10:55:58.887Z,102935.47
2022-10-18T10:58:27.762Z,102935.16
2022-10-18T11:00:56.327Z,102950.59
2022-10-18T11:03:30.956Z,102951.53
2022-10-18T11:06:00.482Z,102958.88
2022-10-18T11:08:35.959Z,102948.41
2022-10-18T11:11:16.977Z,102949.34
2022-10-18T11:14:25.364Z,102955.63
2022-10-18T11:17:06.936Z,102950.88
2022-10-18T11:19:42.822Z,102952.63
2022-10-18T11:22:16.115Z,102949.41
2022-10-18T11:24:42.910Z,102945.22
2022-10-18T11:27:34.973Z,102943.41
2022-10-18T11:30:17.375Z,102953.38
2022-10-18T11:33:10.417Z,102944.47
2022-10-18T11:35:51.737Z,102946.88
2022-10-18T11:38:18.115Z,102949.00
2022-10-18T11:41:05.472Z,102951.06
2022-10-18T11:44:02.341Z,102948.94
2022-10-18T11:46:54.394Z,102943.28
2022-10-18T11:49:35.731Z,102944.91
2022-10-18T11:52:13.227Z,102949.72
2022-10-18T11:54:49.662Z,102947.09
2022-10-18T11:57:35.052Z,102947.56
2022-10-18T12:03:18.565Z,102945.75
2022-10-18T12:05:47.437Z,102932.19
2022-10-18T12:08:35.482Z,102935.88
2022-10-18T12:11:09.944Z,102940.31
2022-10-18T12:13:46.717Z,102935.09
2022-10-18T12:16:13.924Z,102934.28
2022-10-18T12:21:28.370Z,102928.00
2022-10-18T12:24:11.395Z,102929.25
2022-10-18T12:26:38.368Z,102918.19
2022-10-18T12:29:17.069Z,102913.16
2022-10-18T12:31:50.081Z,102922.28
2022-10-18T12:34:22.553Z,102918.75
2022-10-18T12:36:48.924Z,102914.88
2022-10-18T12:39:33.423Z,102915.13
2022-10-18T12:42:22.982Z,102920.59
2022-10-18T12:44:59.739Z,102923.81
2022-10-18T12:47:28.497Z,102916.06
2022-10-18T12:49:57.402Z,102919.94
2022-10-18T12:52:28.020Z,102920.06
2022-10-18T12:55:16.715Z,102915.03
2022-10-18T12:57:52.945Z,102914.38
2022-10-18T13:00:31.363Z,102913.88
2022-10-18T13:03:10.174Z,102909.34
2022-10-18T13:05:55.016Z,102898.72
2022-10-18T13:08:28.203Z,102901.44
2022-10-18T13:11:12.829Z,102892.88
2022-10-18T13:13:51.639Z,102889.44
2022-10-18T13:16:21.028Z,102888.06
2022-10-18T13:18:55.535Z,102880.31
2022-10-18T13:21:55.213Z,102873.47
2022-10-18T13:24:29.040Z,102870.81
2022-10-18T13:30:20.970Z,102869.56
2022-10-18T13:33:08.497Z,102867.94
2022-10-18T13:35:55.060Z,102876.78
2022-10-18T13:38:27.995Z,102881.44
2022-10-18T13:41:04.514Z,102879.63
2022-10-18T13:43:53.085Z,102888.53
2022-10-18T13:46:20.089Z,102899.03
2022-10-18T13:48:47.696Z,102899.00
2022-10-18T13:52:03.827Z,102900.00
2022-10-18T13:54:48.617Z,102900.03
2022-10-18T13:57:27.178Z,102903.25
2022-10-18T14:00:03.455Z,102902.94
2022-10-18T14:03:16.261Z,102901.47
2022-10-18T14:06:02.185Z,102894.94
2022-10-18T14:08:31.653Z,102890.97
2022-10-18T14:11:15.633Z,102900.03
2022-10-18T14:13:45.126Z,102897.63
2022-10-18T14:16:38.902Z,102896.47
2022-10-18T14:19:17.098Z,102901.81
2022-10-18T14:22:07.511Z,102898.78
2022-10-18T14:24:34.587Z,102902.84
2022-10-18T14:27:24.409Z,102911.03
2022-10-18T14:30:07.287Z,102906.03
2022-10-18T14:32:35.317Z,102897.50
2022-10-18T14:35:30.693Z,102907.13
2022-10-18T14:37:51.458Z,102904.00
2022-10-18T14:40:39.063Z,102903.03
2022-10-18T14:43:18.893Z,102901.56
2022-10-18T14:45:45.776Z,102908.59
2022-10-18T14:48:20.521Z,102921.16
2022-10-18T14:50:59.177Z,102909.38
2022-10-18T14:53:32.433Z,102904.78
2022-10-18T14:56:00.903Z,102910.63
2022-10-18T14:58:28.165Z,102913.81
2022-10-18T15:00:55.015Z,102897.69
2022-10-18T15:03:22.008Z,102908.66
2022-10-18T15:06:05.849Z,102914.38
2022-10-18T15:08:43.216Z,102919.16
2022-10-18T15:11:14.320Z,102909.34
2022-10-18T15:13:53.533Z,102905.66
2022-10-18T15:16:23.200Z,102905.44
2022-10-18T15:19:05.937Z,102906.13
2022-10-18T15:21:34.675Z,102909.88
2022-10-18T15:24:25.892Z,102899.03
2022-10-18T15:26:54.949Z,102908.19
2022-10-18T15:29:21.958Z,102903.50
2022-10-18T15:31:50.004Z,102896.53
2022-10-18T15:34:25.824Z,102914.13
2022-10-18T15:36:54.690Z,102903.41
2022-10-18T15:39:26.957Z,102911.13
2022-10-18T15:41:54.708Z,102923.00
2022-10-18T15:44:27.860Z,102917.06
2022-10-18T15:46:57.286Z,102914.41
2022-10-18T15:49:23.644Z,102921.75
2022-10-18T15:52:03.797Z,102929.53
2022-10-18T15:54:30.737Z,102917.72
2022-10-18T15:56:57.543Z,102929.69
2022-10-18T15:59:30.741Z,102922.44
2022-10-18T16:01:57.458Z,102933.94
2022-10-18T16:04:42.147Z,102936.84
2022-10-18T16:07:12.149Z,102927.63
2022-10-18T16:09:38.663Z,102930.66
2022-10-18T16:12:05.207Z,102931.03
2022-10-18T16:14:31.973Z,102934.00
2022-10-18T16:17:05.451Z,102944.78
2022-10-18T16:19:33.095Z,102935.56
2022-10-18T16:22:06.026Z,102938.63
2022-10-18T16:24:33.020Z,102936.03
2022-10-18T16:26:59.478Z,102940.22
2022-10-18T16:29:28.487Z,102940.66
2022-10-18T16:31:58.071Z,102947.19
2022-10-18T16:34:28.878Z,102945.34
2022-10-18T16:36:55.474Z,102945.34
2022-10-18T16:39:23.163Z,102941.06
2022-10-18T16:41:49.719Z,102946.78
2022-10-18T16:44:17.154Z,102943.16
2022-10-18T16:46:44.088Z,102940.59
2022-10-18T16:49:23.843Z,102950.66
2022-10-18T16:51:52.049Z,102950.69
2022-10-18T16:54:18.701Z,102949.91
2022-10-18T16:56:46.741Z,102958.16
2022-10-18T16:59:28.211Z,102964.56
2022-10-18T17:01:54.936Z,102959.94
2022-10-18T17:04:21.465Z,102962.66
2022-10-18T17:06:49.074Z,102967.34
2022-10-18T17:09:16.008Z,102970.56
2022-10-18T17:11:42.502Z,102972.84
2022-10-18T17:14:09.003Z,102979.28
2022-10-18T17:16:37.062Z,102987.50
2022-10-18T17:19:07.546Z,102990.03
2022-10-18T17:21:34.083Z,102996.50
2022-10-18T17:24:05.793Z,102995.38
2022-10-18T17:26:33.065Z,102989.25
2022-10-18T17:29:03.253Z,102990.84
2022-10-18T17:31:30.746Z,102987.13
2022-10-18T17:33:58.779Z,102991.63
2022-10-18T17:36:26.077Z,102995.41
2022-10-18T17:38:53.591Z,102995.69
2022-10-18T17:41:20.897Z,103005.66
2022-10-18T17:43:48.326Z,103006.28
2022-10-18T17:46:15.399Z,103012.22
2022-10-18T17:48:42.259Z,103011.84
2022-10-18T17:51:10.946Z,103007.28
2022-10-18T17:53:37.641Z,103014.00
2022-10-18T17:56:05.006Z,103012.56
2022-10-18T17:58:32.265Z,103014.38
2022-10-18T18:01:11.732Z,103027.22
2022-10-18T18:03:38.828Z,103029.16
2022-10-18T18:06:15.965Z,103024.44
2022-10-18T18:08:42.487Z,103015.94
2022-10-18T18:11:09.147Z,103024.22
2022-10-18T18:13:35.649Z,103019.06
2022-10-18T18:16:14.506Z,103024.66
2022-10-18T18:18:41.662Z,103031.16
2022-10-18T18:21:08.115Z,103031.25
2022-10-18T18:23:34.586Z,103024.69
2022-10-18T18:26:01.046Z,103024.38
2022-10-18T18:28:27.706Z,103027.63
2022-10-18T18:30:54.261Z,103024.91
2022-10-18T18:33:20.724Z,103031.56
2022-10-18T18:35:57.220Z,103033.00
2022-10-18T18:38:24.349Z,103036.13
2022-10-18T18:40:50.807Z,103033.72
2022-10-18T18:43:24.323Z,103037.53
2022-10-18T18:45:52.109Z,103038.63
2022-10-18T18:48:19.912Z,103039.66
2022-10-18T18:50:51.803Z,103042.91
2022-10-18T18:53:19.242Z,103041.50
2022-10-18T18:55:45.822Z,103035.84
2022-10-18T18:58:12.319Z,103048.97
2022-10-18T19:00:43.533Z,103044.63
2022-10-18T19:03:11.970Z,103046.91
2022-10-18T19:05:38.647Z,103047.31
2022-10-18T19:08:05.835Z,103048.72
2022-10-18T19:10:32.463Z,103046.91
2022-10-18T19:12:58.970Z,103047.34
2022-10-18T19:15:25.849Z,103052.56
2022-10-18T19:17:52.391Z,103045.72
2022-10-18T19:20:18.885Z,103053.19
2022-10-18T19:22:45.894Z,103061.09
2022-10-18T19:25:12.946Z,103059.00
2022-10-18T19:27:39.582Z,103053.72
2022-10-18T19:30:10.772Z,103048.03
2022-10-18T19:32:37.282Z,103043.59
2022-10-18T19:35:04.073Z,103040.38
2022-10-18T19:37:30.697Z,103038.03
2022-10-18T19:39:58.530Z,103038.63
2022-10-18T19:42:30.320Z,103040.00
2022-10-18T19:44:57.904Z,103035.66
2022-10-18T19:47:24.370Z,103043.69
2022-10-18T19:49:51.829Z,103043.81
2022-10-18T19:52:18.275Z,103046.09
2022-10-18T19:54:45.117Z,103044.13
2022-10-18T19:57:11.659Z,103035.63
2022-10-18T19:59:38.498Z,103047.88
2022-10-18T20:02:05.006Z,103043.97
2022-10-18T20:04:34.443Z,103046.09
2022-10-18T20:07:02.728Z,103037.59
2022-10-18T20:09:29.718Z,103042.31
2022-10-18T20:11:56.185Z,103045.81
2022-10-18T20:14:22.806Z,103049.72
2022-10-18T20:16:49.308Z,103047.56
2022-10-18T20:19:15.850Z,103056.44
2022-10-18T20:21:42.391Z,103060.88
2022-10-18T20:24:09.470Z,103059.16
2022-10-18T20:26:36.385Z,103050.88
2022-10-18T20:29:03.794Z,103051.63
2022-10-18T20:31:33.824Z,103042.72
2022-10-18T20:34:02.707Z,103043.03
2022-10-18T20:36:31.057Z,103049.06
2022-10-18T20:38:57.917Z,103047.75
2022-10-18T20:41:29.873Z,103049.34
2022-10-18T20:43:59.531Z,103040.16
2022-10-18T20:46:27.102Z,103040.81
2022-10-18T20:48:54.386Z,103028.44
2022-10-18T20:51:21.750Z,103036.63
2022-10-18T20:53:49.083Z,103031.72
2022-10-18T20:56:20.408Z,103039.00
2022-10-18T20:58:49.317Z,103024.31
2022-10-18T21:01:23.267Z,103034.06
2022-10-18T21:03:51.673Z,103033.84
2022-10-18T21:06:19.444Z,103038.47
2022-10-18T21:08:46.306Z,103025.81
2022-10-18T21:11:14.187Z,103028.63
2022-10-18T21:13:43.302Z,103025.91
2022-10-18T21:16:09.846Z,103030.19
2022-10-18T21:18:37.363Z,103033.31
2022-10-18T21:21:24.503Z,103032.50
2022-10-18T21:23:52.217Z,103027.09
2022-10-18T21:26:21.643Z,103025.56
2022-10-18T21:28:50.439Z,103026.75
2022-10-18T21:31:22.104Z,103026.34
2022-10-18T21:33:56.668Z,103026.03
2022-10-18T21:36:23.705Z,103035.19
2022-10-18T21:38:50.936Z,103042.84
2022-10-18T21:41:19.131Z,103036.34
2022-10-18T21:43:48.951Z,103035.03
2022-10-18T21:46:17.751Z,103033.75
2022-10-18T21:48:46.665Z,103033.56
2022-10-18T21:51:15.145Z,103038.69
2022-10-18T21:53:46.414Z,103035.00
2022-10-18T21:56:15.707Z,103036.94
2022-10-18T21:58:42.747Z,103038.03
2022-10-18T22:01:19.832Z,103036.13
2022-10-18T22:03:48.635Z,103036.44
2022-10-18T22:06:16.555Z,103034.78
2022-10-18T22:08:45.178Z,103029.69
2022-10-18T22:11:12.800Z,103041.94
2022-10-18T22:13:39.787Z,103033.63
2022-10-18T22:16:07.354Z,103034.75
2022-10-18T22:18:34.494Z,103024.53
2022-10-18T22:21:04.976Z,103011.66
2022-10-18T22:23:33.821Z,103014.97
2022-10-18T22:26:09.057Z,103018.81
2022-10-18T22:28:35.912Z,103009.88
2022-10-18T22:31:02.455Z,103021.81
2022-10-18T22:33:29.241Z,103022.84
2022-10-18T22:35:55.810Z,103019.28
2022-10-18T22:38:22.430Z,103015.41
2022-10-18T22:40:49.290Z,103023.03
2022-10-18T22:43:15.718Z,103028.16
2022-10-18T22:45:42.205Z,103015.66
2022-10-18T22:48:08.620Z,103015.75
2022-10-18T22:50:35.072Z,103013.16
2022-10-18T22:53:01.469Z,103015.91
2022-10-18T22:55:27.905Z,103010.50
2022-10-18T22:57:56.286Z,103013.56
2022-10-18T23:00:22.730Z,103010.59
2022-10-18T23:02:49.943Z,103016.59
2022-10-18T23:05:16.447Z,103016.81
2022-10-18T23:07:47.534Z,103017.34
2022-10-18T23:10:14.051Z,103015.19
2022-10-18T23:12:40.487Z,103015.72
2022-10-18T23:15:07.621Z,103023.59
2022-10-18T23:17:34.253Z,103025.22
2022-10-18T23:20:00.862Z,103020.59
2022-10-18T23:22:27.311Z,103016.00
2022-10-18T23:24:53.735Z,103018.19
2022-10-18T23:27:20.158Z,103018.69
2022-10-18T23:29:46.559Z,103018.00
2022-10-18T23:32:13.041Z,103015.88
2022-10-18T23:34:39.423Z,103026.41
2022-10-18T23:37:05.854Z,103029.06
2022-10-18T23:39:32.262Z,103026.94
2022-10-18T23:41:58.713Z,103028.03
2022-10-18T23:44:25.100Z,103016.69
2022-10-18T23:46:51.590Z,103010.31
2022-10-18T23:49:18.011Z,103004.94
2022-10-18T23:51:44.439Z,103014.44
2022-10-18T23:54:10.828Z,103014.91
2022-10-18T23:56:37.294Z,103009.47
2022-10-18T23:59:03.711Z,103017.38
